Time;durP1;ratioP1;P1;durP2;ratioP2;P2;SDS_P1;SDS_P2;PMS_P1;PMS_P2;Temp;Humidity;BMP_temperature;BMP_pressure;BME280_temperature;BME280_humidity;BME280_pressure;Samples;Min_cycle;Max_cycle;Signal;HPM_P1;HPM_P2
2022/11/08 00:01:40;;;;;;;13.07;3.85;;;12.90;99.90;;;;;;6274594;22;20030;-88
2022/11/08 00:04:12;;;;;;;19.33;4.13;;;12.80;99.90;;;;;;6273882;22;20003;-90
2022/11/08 00:14:52;;;;;;;6.95;3.45;;;;;;;;;;6274229;22;20018;-90
2022/11/08 00:17:20;;;;;;;12.82;3.45;;;13.00;99.90;;;;;;6273062;22;20053;-91
2022/11/08 00:19:46;;;;;;;11.68;3.72;;;;;;;;;;6272757;22;20403;-89
2022/11/08 00:22:13;;;;;;;6.15;3.67;;;12.90;99.90;;;;;;6275853;22;19996;-91
2022/11/08 00:24:39;;;;;;;10.02;3.70;;;;;;;;;;6273978;22;20057;-85
2022/11/08 00:27:13;;;;;;;7.97;3.60;;;13.00;99.90;;;;;;6270501;22;20083;-84
2022/11/08 00:29:40;;;;;;;12.73;3.80;;;;;;;;;;6273673;22;20002;-84
2022/11/08 00:32:08;;;;;;;10.35;3.90;;;12.90;99.90;;;;;;6273563;22;20008;-90
2022/11/08 00:34:34;;;;;;;7.80;3.42;;;;;;;;;;6274118;22;19999;-90
2022/11/08 00:37:00;;;;;;;12.55;4.35;;;;;;;;;;6272743;22;20011;-91
2022/11/08 00:39:26;;;;;;;11.43;3.85;;;;;;;;;;6274190;22;20007;-88
2022/11/08 00:41:52;;;;;;;8.27;3.50;;;;;;;;;;6274312;22;20205;-91
2022/11/08 00:44:18;;;;;;;8.52;3.80;;;;;;;;;;6273606;22;20003;-91
2022/11/08 00:46:45;;;;;;;12.20;3.63;;;;;;;;;;6273771;22;20384;-90
2022/11/08 00:49:11;;;;;;;9.65;3.58;;;;;;;;;;6273254;22;20387;-91
2022/11/08 00:51:37;;;;;;;8.15;3.80;;;;;;;;;;6274197;22;20022;-91
2022/11/08 00:54:04;;;;;;;10.73;4.35;;;13.10;99.90;;;;;;6273767;22;20373;-91
2022/11/08 00:56:30;;;;;;;12.52;3.50;;;;;;;;;;6273645;22;20007;-88
2022/11/08 00:58:57;;;;;;;18.25;3.95;;;13.20;99.90;;;;;;6274023;22;19999;-91
2022/11/08 01:01:23;;;;;;;10.45;3.85;;;;;;;;;;6273932;22;20035;-91
2022/11/08 01:03:49;;;;;;;13.98;3.67;;;;;;;;;;6272928;22;20015;-91
2022/11/08 01:06:17;;;;;;;9.30;3.53;;;13.30;99.90;;;;;;6274884;22;20007;-85
2022/11/08 01:08:44;;;;;;;9.23;3.45;;;;;;;;;;6275153;22;20000;-90
2022/11/08 01:11:12;;;;;;;12.35;3.88;;;13.40;99.90;;;;;;6272874;22;20069;-90
2022/11/08 01:13:39;;;;;;;10.32;3.70;;;;;;;;;;6273771;22;20003;-92
2022/11/08 01:16:31;;;;;;;8.80;3.42;;;13.30;99.90;;;;;;6273351;22;20445;-90
2022/11/08 01:18:58;;;;;;;10.35;3.45;;;13.40;99.90;;;;;;6269807;22;20007;-91
2022/11/08 01:21:33;;;;;;;14.60;4.00;;;13.50;99.90;;;;;;6274255;22;20011;-90
2022/11/08 01:23:59;;;;;;;13.13;3.78;;;;;;;;;;6274038;22;19999;-91
2022/11/08 01:26:26;;;;;;;11.02;3.80;;;13.50;99.90;;;;;;6272097;22;20009;-92
2022/11/08 01:28:52;;;;;;;9.30;3.73;;;;;;;;;;6273473;22;20047;-90
2022/11/08 01:31:24;;;;;;;16.33;4.35;;;13.50;99.90;;;;;;6273582;22;19999;-84
2022/11/08 01:33:50;;;;;;;13.18;3.67;;;;;;;;;;6273795;22;20490;-90
2022/11/08 01:36:18;;;;;;;14.85;4.00;;;13.60;99.90;;;;;;6274916;22;20029;-89
2022/11/08 01:38:44;;;;;;;10.48;3.65;;;;;;;;;;6275086;22;20000;-90
2022/11/08 01:41:14;;;;;;;10.65;3.50;;;13.80;99.90;;;;;;6273310;22;20008;-90
2022/11/08 01:43:44;;;;;;;16.52;3.33;;;13.90;99.90;;;;;;6273648;22;20006;-90
2022/11/08 01:46:18;;;;;;;10.05;3.08;;;13.90;99.90;;;;;;6274580;22;20008;-89
2022/11/08 01:48:47;;;;;;;9.75;3.35;;;14.20;99.90;;;;;;6275748;22;20000;-91
2022/11/08 01:51:17;;;;;;;11.27;3.45;;;14.00;99.90;;;;;;6274453;22;20467;-89
2022/11/08 01:53:43;;;;;;;10.52;3.20;;;14.10;99.90;;;;;;6274362;22;20010;-90
2022/11/08 01:56:12;;;;;;;12.02;2.90;;;14.20;99.90;;;;;;6273039;22;20191;-91
2022/11/08 01:58:40;;;;;;;6.60;2.70;;;14.60;99.90;;;;;;6274198;22;20468;-87
2022/11/08 02:01:06;;;;;;;13.40;3.10;;;;;;;;;;6274342;22;20076;-91
2022/11/08 02:03:33;;;;;;;7.22;2.40;;;14.40;99.90;;;;;;6273939;22;20489;-91
2022/11/08 02:06:00;;;;;;;12.90;2.80;;;14.50;99.90;;;;;;6274479;22;20428;-91
2022/11/08 02:08:32;;;;;;;10.80;3.20;;;14.40;99.90;;;;;;6273743;22;20000;-91
2022/11/08 02:10:58;;;;;;;7.72;2.20;;;;;;;;;;6273083;22;19999;-90
2022/11/08 02:13:26;;;;;;;6.93;1.80;;;14.40;99.90;;;;;;6273883;22;20000;-91
2022/11/08 02:15:53;;;;;;;3.10;1.55;;;;;;;;;;6273528;22;20447;-90
2022/11/08 02:18:22;;;;;;;7.60;1.70;;;14.10;99.90;;;;;;6273979;22;20000;-92
2022/11/08 02:20:59;;;;;;;3.78;1.58;;;14.00;99.90;;;;;;6272835;22;20043;-90
2022/11/08 02:23:56;;;;;;;2.88;1.02;;;13.80;99.90;;;;;;6272150;22;20006;-91
2022/11/08 02:26:27;;;;;;;1.35;0.80;;;13.80;99.90;;;;;;6266174;22;20004;-84
2022/11/08 02:28:53;;;;;;;2.97;0.82;;;;;;;;;;6273868;22;20436;-90
2022/11/08 02:31:19;;;;;;;2.78;0.93;;;;;;;;;;6272849;22;20441;-91
2022/11/08 02:33:46;;;;;;;1.73;0.85;;;13.70;99.90;;;;;;6273324;22;20030;-89
2022/11/08 02:36:15;;;;;;;2.08;0.77;;;13.70;99.90;;;;;;6271098;22;20007;-84
2022/11/08 02:38:45;;;;;;;0.93;0.70;;;13.80;99.90;;;;;;6273338;22;20375;-91
2022/11/08 02:41:11;;;;;;;0.98;0.82;;;;;;;;;;6271769;22;20022;-91
2022/11/08 02:43:37;;;;;;;1.75;0.60;;;;;;;;;;6273787;22;20061;-91
2022/11/08 02:46:04;;;;;;;1.85;0.73;;;;;;;;;;6271372;22;20011;-91
2022/11/08 02:48:30;;;;;;;1.60;0.70;;;;;;;;;;6273238;22;20075;-92
2022/11/08 02:50:56;;;;;;;4.70;0.82;;;;;;;;;;6273862;22;20049;-91
2022/11/08 02:53:22;;;;;;;2.78;0.65;;;;;;;;;;6274930;22;20076;-91
2022/11/08 02:55:48;;;;;;;3.05;1.02;;;;;;;;;;6274953;22;19995;-92
2022/11/08 02:58:14;;;;;;;2.83;0.95;;;;;;;;;;6273552;22;20397;-89
2022/11/08 03:00:40;;;;;;;1.90;0.80;;;;;;;;;;6273026;22;20054;-90
2022/11/08 03:03:06;;;;;;;1.67;0.70;;;;;;;;;;6274287;22;19995;-86
2022/11/08 03:05:32;;;;;;;5.28;1.13;;;;;;;;;;6271949;22;20018;-86
2022/11/08 03:07:58;;;;;;;10.98;1.30;;;;;;;;;;6274098;22;19996;-88
2022/11/08 03:10:26;;;;;;;1.98;0.77;;;13.30;99.90;;;;;;6274275;22;19996;-89
2022/11/08 03:13:00;;;;;;;7.22;1.13;;;13.20;99.90;;;;;;6275409;22;20467;-90
2022/11/08 03:15:26;;;;;;;1.90;0.73;;;;;;;;;;6273602;22;20066;-93
2022/11/08 03:17:52;;;;;;;2.50;0.77;;;;;;;;;;6273043;22;20010;-90
2022/11/08 03:20:18;;;;;;;1.80;0.60;;;;;;;;;;6272073;22;20015;-92
2022/11/08 03:22:45;;;;;;;2.55;0.77;;;;;;;;;;6275543;22;19999;-85
2022/11/08 03:25:11;;;;;;;2.30;0.90;;;;;;;;;;6275452;22;20000;-88
2022/11/08 03:27:37;;;;;;;2.20;0.90;;;;;;;;;;6275276;22;20003;-88
2022/11/08 03:30:05;;;;;;;1.65;0.70;;;13.40;99.90;;;;;;6275068;22;20000;-91
2022/11/08 03:32:31;;;;;;;3.63;1.05;;;;;;;;;;6275204;22;19995;-91
2022/11/08 03:34:58;;;;;;;3.00;0.90;;;;;;;;;;6274405;22;20374;-91
2022/11/08 03:37:25;;;;;;;4.80;0.98;;;;;;;;;;6274814;22;20000;-84
2022/11/08 03:39:50;;;;;;;2.33;1.05;;;;;;;;;;6275660;22;20019;-90
2022/11/08 03:42:16;;;;;;;3.45;1.10;;;;;;;;;;6275242;22;20057;-85
2022/11/08 03:44:43;;;;;;;2.42;0.85;;;;;;;;;;6273283;22;20457;-87
2022/11/08 03:47:09;;;;;;;3.35;0.88;;;;;;;;;;6273545;22;20302;-90
2022/11/08 03:49:35;;;;;;;1.63;0.70;;;;;;;;;;6274445;22;20450;-86
2022/11/08 03:52:01;;;;;;;3.22;0.65;;;;;;;;;;6274225;22;20495;-90
2022/11/08 03:54:27;;;;;;;2.90;1.00;;;;;;;;;;6273923;22;20329;-90
2022/11/08 03:56:53;;;;;;;3.55;1.02;;;;;;;;;;6274821;22;20042;-92
2022/11/08 03:59:19;;;;;;;1.70;0.70;;;;;;;;;;6276192;22;20008;-90
2022/11/08 04:01:45;;;;;;;1.85;0.80;;;;;;;;;;6276705;22;20561;-91
2022/11/08 04:04:11;;;;;;;2.00;0.70;;;;;;;;;;6277212;22;20062;-91
2022/11/08 04:06:38;;;;;;;1.88;1.00;;;;;;;;;;6276100;22;20003;-86
2022/11/08 04:09:04;;;;;;;0.98;0.70;;;;;;;;;;6274513;22;20046;-86
2022/11/08 04:16:59;;;;;;;2.80;0.80;;;;;;;;;;6275299;22;20341;-84
2022/11/08 04:22:10;;;;;;;3.28;0.80;;;13.30;99.90;;;;;;6275446;22;20018;-91
2022/11/08 04:24:36;;;;;;;6.40;1.13;;;;;;;;;;6276381;22;20022;-84
2022/11/08 04:27:02;;;;;;;5.93;0.80;;;;;;;;;;6275849;22;20000;-92
2022/11/08 04:29:29;;;;;;;2.55;1.30;;;;;;;;;;6276147;22;20011;-89
2022/11/08 04:31:55;;;;;;;5.00;1.08;;;;;;;;;;6276034;22;20071;-91
2022/11/08 04:34:21;;;;;;;2.40;1.20;;;;;;;;;;6276726;22;20011;-91
2022/11/08 04:36:47;;;;;;;2.63;1.00;;;;;;;;;;6278406;22;20000;-84
2022/11/08 04:39:13;;;;;;;5.97;1.20;;;;;;;;;;6275599;22;20336;-93
2022/11/08 04:41:38;;;;;;;5.70;1.10;;;14.70;99.90;;;;;;6275648;22;20008;-91
2022/11/08 04:44:04;;;;;;;6.20;1.00;;;10.80;99.90;;;;;;6275075;22;20031;-91
2022/11/08 04:46:30;;;;;;;7.78;1.20;;;;;;;;;;6273218;22;20437;-84
2022/11/08 04:49:19;;;;;;;9.65;1.35;;;;;;;;;;6274579;22;20003;-93
2022/11/08 04:54:59;;;;;;;6.57;1.20;;;;;;;;;;6153146;23;20006;-90
2022/11/08 04:57:25;;;;;;;5.28;1.50;;;;;;;;;;6260329;22;20521;-89
2022/11/08 04:59:51;;;;;;;7.70;1.80;;;;;;;;;;6272404;22;20011;-88
2022/11/08 05:02:20;;;;;;;7.95;1.55;;;;;;;;;;6273298;22;20003;-88
2022/11/08 05:04:47;;;;;;;11.15;1.83;;;;;;;;;;6271516;22;20011;-91
2022/11/08 05:07:13;;;;;;;8.65;1.50;;;;;;;;;;6273149;22;20000;-90
2022/11/08 05:09:39;;;;;;;10.07;1.65;;;;;;;;;;6271652;22;20011;-88
2022/11/08 05:12:07;;;;;;;11.90;1.75;;;;;;;;;;6273036;22;20003;-90
2022/11/08 05:14:33;;;;;;;15.48;1.70;;;;;;;;;;6271651;22;20077;-90
2022/11/08 05:17:00;;;;;;;4.80;1.13;;;;;;;;;;6271794;22;20084;-90
2022/11/08 05:24:55;;;;;;;9.30;1.50;;;;;;;;;;6271808;22;20019;-90
2022/11/08 05:27:21;;;;;;;7.95;1.60;;;;;;;;;;6268902;22;20012;-90
2022/11/08 05:29:47;;;;;;;7.22;1.67;;;;;;;;;;6268349;22;20034;-90
2022/11/08 05:32:13;;;;;;;6.65;1.75;;;;;;;;;;6269425;22;20038;-90
2022/11/08 05:34:39;;;;;;;10.75;2.08;;;;;;;;;;6270091;22;20008;-90
2022/11/08 05:37:06;;;;;;;10.95;2.08;;;;;;;;;;6270716;22;20007;-89
2022/11/08 05:43:25;;;;;;;7.22;2.58;;;;;;;;;;6138127;23;20013;-94
2022/11/08 05:46:00;;;;;;;10.98;1.95;;;;;;;;;;6151041;23;20450;-91
2022/11/08 05:55:19;;;;;;;;;;;;;;;;;;;;;
2022/11/08 06:01:04;;;;;;;13.25;2.35;;;;;;;;;;6092962;23;20025;-90
2022/11/08 06:03:30;;;;;;;17.15;3.40;;;;;;;;;;6145744;23;20076;-89
2022/11/08 06:05:56;;;;;;;14.85;2.38;;;;;;;;;;6134454;22;20041;-89
2022/11/08 06:08:22;;;;;;;15.20;2.30;;;;;;;;;;6270597;22;20000;-89
2022/11/08 06:10:48;;;;;;;24.63;2.60;;;;;;;;;;6270502;22;20023;-90
2022/11/08 06:13:14;;;;;;;19.88;3.10;;;;;;;;;;6272032;22;20000;-86
2022/11/08 06:15:40;;;;;;;14.10;2.67;;;;;;;;;;6271645;22;20011;-90
2022/11/08 06:18:06;;;;;;;18.70;2.55;;;;;;;;;;6270829;22;20022;-89
2022/11/08 06:20:32;;;;;;;22.20;2.75;;;;;;;;;;6273616;22;20098;-90
2022/11/08 06:22:59;;;;;;;20.73;2.80;;;;;;;;;;6271680;22;20000;-90
2022/11/08 06:25:27;;;;;;;23.60;2.90;;;;;;;;;;6271938;22;20378;-89
2022/11/08 06:27:53;;;;;;;26.92;3.13;;;;;;;;;;6271973;22;20163;-90
2022/11/08 06:30:19;;;;;;;25.40;2.97;;;;;;;;;;6272649;22;19995;-90
2022/11/08 06:32:45;;;;;;;19.77;3.15;;;;;;;;;;6272425;22;20007;-90
2022/11/08 06:35:11;;;;;;;16.52;2.83;;;;;;;;;;6271879;22;20062;-89
2022/11/08 06:37:37;;;;;;;26.00;3.15;;;;;;;;;;6270720;22;20011;-89
2022/11/08 06:40:26;;;;;;;23.73;2.75;;;;;;;;;;6271756;22;20020;-91
2022/11/08 06:42:52;;;;;;;24.02;3.85;;;;;;;;;;6270251;22;20445;-90
2022/11/08 06:45:30;;;;;;;;;;;;;;;;;;;;;
2022/11/08 06:48:03;;;;;;;26.95;3.40;;;;;;;;;;6273313;22;20078;-91
2022/11/08 06:50:30;;;;;;;22.75;2.70;;;;;;;;;;6273205;22;20074;-89
2022/11/08 06:53:07;;;;;;;17.98;2.58;;;;;;;;;;6271987;22;20086;-90
2022/11/08 06:55:34;;;;;;;25.25;2.97;;;;;;;;;;6272412;22;20031;-91
2022/11/08 06:58:00;;;;;;;28.70;3.72;;;;;;;;;;6271535;22;20000;-90
2022/11/08 07:00:28;;;;;;;25.55;3.30;;;;;;;;;;6272566;22;20370;-89
2022/11/08 07:02:55;;;;;;;27.02;3.10;;;;;;;;;;6270726;22;20118;-91
2022/11/08 07:05:21;;;;;;;28.77;3.28;;;;;;;;;;6271111;22;20018;-88
2022/11/08 07:07:53;;;;;;;23.90;4.35;;;;;;;;;;6271518;22;20006;-89
2022/11/08 07:10:20;;;;;;;33.70;4.68;;;;;;;;;;6272280;22;20003;-89
2022/11/08 07:12:46;;;;;;;25.27;3.28;;;;;;;;;;6270590;22;20098;-91
2022/11/08 07:15:13;;;;;;;37.20;3.90;;;;;;;;;;6271058;22;20007;-89
2022/11/08 07:17:39;;;;;;;27.27;3.50;;;;;;;;;;6270740;22;19996;-89
2022/11/08 07:20:06;;;;;;;31.33;3.42;;;;;;;;;;6270599;22;20125;-90
2022/11/08 07:22:46;;;;;;;28.27;3.70;;;;;;;;;;6272626;22;20067;-94
2022/11/08 07:25:15;;;;;;;34.50;4.30;;;;;;;;;;6273328;22;20010;-91
2022/11/08 07:28:10;;;;;;;21.42;4.40;;;;;;;;;;6272588;22;20378;-93
2022/11/08 07:30:36;;;;;;;32.92;4.00;;;;;;;;;;6272415;22;20424;-91
2022/11/08 08:08:00;;;;;;;37.72;4.82;;;;;;;;;;5853015;24;20072;-93
2022/11/08 08:11:18;;;;;;;;;;;;;;;;;;;;;
2022/11/08 08:14:35;;;;;;;;;;;;;;;;;;;;;
2022/11/08 08:30:01;;;;;;;;;;;;;;;;;;;;;
2022/11/08 09:52:38;;;;;;;21.48;2.85;;;;;;;;;;6101065;23;20378;-94
2022/11/08 10:20:20;;;;;;;16.40;3.00;;;;;;;;;;5930310;24;20013;-92
2022/11/08 10:22:52;;;;;;;23.05;3.10;;;;;;;;;;5894286;24;20067;-92
2022/11/08 10:46:58;;;;;;;;;;;;;;;;;;;;;
2022/11/08 10:52:57;;;;;;;27.25;4.30;;;;;;;;;;5968136;23;20013;-92
2022/11/08 10:55:37;;;;;;;31.73;4.75;;;;;;;;;;5955002;24;20015;-92
2022/11/08 11:01:57;;;;;;;27.55;3.92;;;;;;;;;;6064076;23;20107;-91
2022/11/08 11:13:54;;;;;;;34.53;4.57;;;;;;;;;;6241353;22;20061;-92
2022/11/08 11:19:36;;;;;;;33.78;5.03;;;;;;;;;;6148961;23;20137;-93
2022/11/08 11:22:22;;;;;;;30.67;4.75;;;;;;;;;;6127134;23;20092;-92
2022/11/08 11:24:53;;;;;;;31.63;4.82;;;;;;;;;;6151384;23;20005;-91
2022/11/08 11:27:42;;;;;;;38.38;4.95;;;;;;;;;;6127206;23;20222;-92
2022/11/08 11:30:07;;;;;;;;;;;;;;;;;;6151601;23;20029;-92
2022/11/08 11:33:01;;;;;;;30.30;4.97;;;;;;;;;;6126131;23;19904;-92
2022/11/08 11:35:36;;;;;;;22.85;4.28;;;;;;;;;;6150897;23;20009;-93
2022/11/08 11:38:17;;;;;;;28.58;4.40;;;;;;;;;;6151510;23;20013;-93
2022/11/08 11:40:46;;;;;;;30.95;4.07;;;;;;;;;;6126958;23;20378;-91
2022/11/08 11:44:12;;;;;;;;;;;;;;;;;;;;;
2022/11/08 11:46:54;;;;;;;32.30;4.13;;;;;;;;;;6029935;23;20015;-92
2022/11/08 11:49:48;;;;;;;32.20;4.28;;;;;;;;;;6065242;22;20481;-93
2022/11/08 11:53:03;;;;;;;29.65;4.32;;;;;;;;;;6272614;22;20090;-93
2022/11/08 11:55:25;;;;;;;29.55;4.70;;;;;;;;;;6233353;22;20000;-92
2022/11/08 11:58:24;;;;;;;;;;;;;;;;;;;;;
2022/11/08 12:00:56;;;;;;;27.17;4.28;;;;;;;;;;6236071;22;20078;-92
2022/11/08 12:03:35;;;;;;;28.35;4.75;;;;;;;;;;6272132;22;20336;-93
2022/11/08 12:06:43;;;;;;;27.55;4.85;;;;;;;;;;6272474;22;20008;-93
2022/11/08 12:09:14;;;;;;;27.83;4.05;;;;;;;;;;6156852;23;20016;-93
2022/11/08 12:11:48;;;;;;;25.05;5.50;;;;;;;;;;6180364;23;20041;-92
2022/11/08 12:14:17;;;;;;;28.73;4.28;;;;;;;;;;6271715;22;20004;-93
2022/11/08 12:16:43;;;;;;;27.33;4.25;;;;;;;;;;6272653;22;20008;-91
2022/11/08 12:19:12;;;;;;;26.33;4.47;;;;;;;;;;6272695;22;19999;-93
2022/11/08 12:24:44;;;;;;;22.80;4.10;;;;;;;;;;6262483;22;20288;-92
2022/11/08 12:27:23;;;;;;;23.10;4.50;;;;;;;;;;6272266;22;20004;-93
2022/11/08 12:30:02;;;;;;;27.13;3.90;;;;;;;;;;6272643;22;20448;-93
2022/11/08 12:32:49;;;;;;;25.40;3.67;;;;;;;;;;6271893;22;20039;-92
2022/11/08 12:35:31;;;;;;;;;;;;;;;;;;;;;
2022/11/08 12:38:37;;;;;;;20.92;3.55;;;;;;;;;;6274526;22;20090;-92
2022/11/08 12:42:13;;;;;;;;;;;;;;;;;;;;;
2022/11/08 12:44:10;;;;;;;;;;;;;;;;;;6263682;22;20008;-93
2022/11/08 12:50:03;;;;;;;;;;;;;;;;;;;;;
2022/11/08 12:53:22;;;;;;;23.40;3.65;;;;;;;;;;6306669;22;20098;-92
2022/11/08 12:55:54;;;;;;;19.25;4.07;;;;;;;;;;6189481;22;20339;-93
2022/11/08 12:58:32;;;;;;;26.65;3.70;;;;;;;;;;6277501;22;20393;-92
2022/11/08 13:01:03;;;;;;;29.50;3.75;;;;;;;;;;6277483;22;20003;-92
2022/11/08 13:03:53;;;;;;;;;;;;;;;;;;;;;
2022/11/08 13:06:43;;;;;;;27.80;3.95;;;;;;;;;;6305227;22;20205;-93
2022/11/08 13:09:15;;;;;;;23.73;3.75;;;;;;;;;;6276723;22;20347;-92
2022/11/08 13:12:14;;;;;;;;;;;;;;;;;;;;;
2022/11/08 13:14:40;;;;;;;28.60;4.03;;;;;;;;;;6305167;22;20070;-92
2022/11/08 13:17:18;;;;;;;23.33;3.33;;;;;;;;;;6276826;22;20008;-93
2022/11/08 13:22:46;;;;;;;24.27;3.63;;;;;;;;;;6241340;23;19899;-93
2022/11/08 13:28:08;;;;;;;;;;;;;;;;;;;;;
2022/11/08 13:31:05;;;;;;;;;;;;;;;;;;;;;
2022/11/08 13:33:37;;;;;;;25.05;4.15;;;;;;;;;;6173836;23;20087;-92
2022/11/08 13:51:55;;;;;;;;;;;;;;;;;;;;;
2022/11/08 13:54:22;;;;;;;17.90;3.15;;;;;;;;;;6060514;23;20014;-94
2022/11/08 13:56:56;;;;;;;31.23;4.07;;;;;;;;;;6062839;23;20171;-93
2022/11/08 14:09:45;;;;;;;20.42;3.25;;;;;;;;;;5848941;24;20041;-95
2022/11/08 14:12:56;;;;;;;24.88;3.38;;;;;;;;;;5895912;24;20102;-92
2022/11/08 14:15:22;;;;;;;16.60;3.35;;;;;;;;;;5874401;24;20005;-93
2022/11/08 14:18:05;;;;;;;;;;;;;;;;;;;;;
2022/11/08 14:23:29;;;;;;;;;;;;;;;;;;;;;
2022/11/08 14:32:14;;;;;;;21.05;3.10;;;;;;;;;;6103051;23;20093;-93
2022/11/08 14:35:00;;;;;;;11.80;2.70;;;;;;;;;;6099422;23;20044;-94
2022/11/08 15:06:41;;;;;;;;;;;;;;;;;;;;;
2022/11/08 15:24:05;;;;;;;23.42;3.10;;;15.20;99.90;;;;;;5936004;24;20025;-93
2022/11/08 15:31:09;;;;;;;;;;;;;;;;;;;;;
2022/11/08 15:34:14;;;;;;;;;;;;;;;;;;;;;
2022/11/08 15:44:04;;;;;;;;;;;;;;;;;;;;;
2022/11/08 15:50:30;;;;;;;;;;;;;;;;;;;;;
2022/11/08 15:54:10;;;;;;;;;;;;;;;;;;;;;
2022/11/08 16:00:35;;;;;;;;;;;;;;;;;;;;;
2022/11/08 16:03:51;;;;;;;;;;;;;;;;;;;;;
2022/11/08 16:09:49;;;;;;;19.33;3.40;;;;;;;;;;5977726;23;20017;-93
2022/11/08 16:16:00;;;;;;;;;;;;;;;;;;;;;
2022/11/08 16:18:57;;;;;;;17.73;3.15;;;14.40;99.90;;;;;;6274736;22;20070;-95
2022/11/08 16:21:27;;;;;;;20.65;2.92;;;;;;;;;;6195537;22;20440;-93
2022/11/08 16:30:21;;;;;;;27.30;4.13;;;;;;;;;;6132664;23;20012;-93
2022/11/08 16:36:36;;;;;;;28.77;4.25;;;14.20;99.90;;;;;;6116382;23;20067;-94
2022/11/08 16:39:25;;;;;;;25.33;4.32;;;14.20;99.90;;;;;;6211302;23;20001;-95
2022/11/08 16:41:51;;;;;;;18.67;3.80;;;;;;;;;;6183278;23;20373;-90
2022/11/08 16:44:17;;;;;;;20.33;4.25;;;;;;;;;;6209065;23;20004;-91
2022/11/08 16:46:46;;;;;;;29.15;4.47;;;;;;;;;;6285066;22;20018;-87
2022/11/08 16:49:23;;;;;;;23.77;4.20;;;13.30;99.90;;;;;;6274626;22;20030;-91
2022/11/08 16:51:49;;;;;;;23.55;3.78;;;;;;;;;;6275576;22;20018;-92
2022/11/08 16:54:22;;;;;;;15.43;3.72;;;14.00;99.90;;;;;;6275559;22;20003;-91
2022/11/08 16:56:48;;;;;;;25.10;4.03;;;;;;;;;;6276170;22;20060;-92
2022/11/08 16:59:14;;;;;;;27.38;4.53;;;;;;;;;;6275211;22;20010;-89
2022/11/08 17:01:41;;;;;;;27.80;4.47;;;;;;;;;;6274113;22;20007;-91
2022/11/08 17:04:06;;;;;;;27.83;4.47;;;12.50;99.90;;;;;;6275562;22;20094;-88
2022/11/08 17:06:32;;;;;;;26.58;3.95;;;;;;;;;;6302826;22;20031;-88
2022/11/08 17:08:58;;;;;;;30.63;4.88;;;;;;;;;;6301245;22;19995;-89
2022/11/08 17:11:24;;;;;;;30.92;4.75;;;;;;;;;;6275352;22;20072;-90
2022/11/08 17:13:54;;;;;;;28.88;4.43;;;;;;;;;;6302425;22;19999;-92
2022/11/08 17:16:20;;;;;;;29.08;4.68;;;;;;;;;;6302409;22;20010;-89
2022/11/08 17:18:46;;;;;;;28.80;4.63;;;;;;;;;;6301836;22;19999;-89
2022/11/08 17:21:13;;;;;;;29.05;5.22;;;14.20;99.90;;;;;;6274775;22;20035;-90
2022/11/08 17:23:39;;;;;;;27.83;5.65;;;;;;;;;;6302925;22;20050;-90
2022/11/08 17:26:07;;;;;;;25.92;4.78;;;14.10;99.90;;;;;;6304326;22;20030;-90
2022/11/08 17:28:33;;;;;;;26.23;4.45;;;;;;;;;;6303959;22;20491;-90
2022/11/08 17:31:08;;;;;;;22.50;4.50;;;14.10;99.90;;;;;;6302206;22;20027;-89
2022/11/08 17:33:34;;;;;;;19.85;3.78;;;;;;;;;;6277122;22;20006;-91
2022/11/08 17:36:08;;;;;;;24.35;4.20;;;14.10;99.90;;;;;;6304618;22;20006;-89
2022/11/08 17:38:35;;;;;;;19.20;4.35;;;14.00;99.90;;;;;;6278351;22;20010;-89
2022/11/08 17:41:02;;;;;;;18.27;3.85;;;14.00;99.90;;;;;;6304523;22;20007;-90
2022/11/08 17:43:28;;;;;;;20.13;3.97;;;;;;;;;;6277361;22;20527;-87
2022/11/08 17:45:54;;;;;;;17.20;3.85;;;;;;;;;;6304415;22;20064;-88
2022/11/08 17:48:20;;;;;;;19.20;3.75;;;;;;;;;;6303963;22;20053;-90
2022/11/08 17:50:47;;;;;;;18.83;3.25;;;;;;;;;;6277125;22;20014;-90
2022/11/08 17:53:13;;;;;;;16.00;3.47;;;;;;;;;;6277270;22;20011;-89
2022/11/08 17:55:39;;;;;;;13.98;3.85;;;;;;;;;;6278010;22;20006;-89
2022/11/08 17:58:05;;;;;;;17.95;3.58;;;;;;;;;;6277821;22;20344;-92
2022/11/08 18:00:31;;;;;;;18.15;3.78;;;;;;;;;;6277074;22;20447;-91
2022/11/08 18:02:58;;;;;;;17.95;3.58;;;;;;;;;;6304460;22;20014;-89
2022/11/08 18:05:24;;;;;;;12.50;3.20;;;;;;;;;;6276243;22;20035;-88
2022/11/08 18:07:50;;;;;;;13.25;3.50;;;;;;;;;;6277383;22;20064;-89
2022/11/08 18:10:15;;;;;;;14.88;3.38;;;13.60;99.90;;;;;;6304370;22;20424;-90
2022/11/08 18:12:42;;;;;;;18.02;3.50;;;;;;;;;;6304231;22;20014;-89
2022/11/08 18:15:08;;;;;;;13.48;3.50;;;13.30;99.90;;;;;;6305395;22;19996;-89
2022/11/08 18:17:34;;;;;;;13.05;3.22;;;;;;;;;;6304297;22;20010;-88
2022/11/08 18:20:00;;;;;;;14.82;3.47;;;10.80;99.90;;;;;;6276761;22;20165;-89
2022/11/08 18:22:26;;;;;;;14.70;3.03;;;;;;;;;;6303994;22;20021;-88
2022/11/08 18:24:52;;;;;;;12.32;2.88;;;;;;;;;;6276265;22;20029;-89
2022/11/08 18:27:18;;;;;;;12.68;3.00;;;;;;;;;;6304200;22;19995;-90
2022/11/08 18:29:44;;;;;;;13.52;3.28;;;;;;;;;;6304264;22;20018;-90
2022/11/08 18:32:10;;;;;;;18.60;3.58;;;;;;;;;;6304844;22;20417;-89
2022/11/08 18:34:36;;;;;;;17.88;4.60;;;;;;;;;;6276641;22;20006;-88
2022/11/08 18:37:02;;;;;;;20.25;4.70;;;;;;;;;;6303501;22;20367;-90
2022/11/08 18:39:28;;;;;;;17.15;5.18;;;;;;;;;;6303707;22;20376;-90
2022/11/08 18:41:54;;;;;;;15.45;5.15;;;;;;;;;;6304308;22;20092;-89
2022/11/08 18:44:20;;;;;;;14.27;5.18;;;16.20;99.90;;;;;;6303944;22;20003;-89
2022/11/08 18:46:46;;;;;;;18.38;5.50;;;;;;;;;;6276138;22;20011;-89
2022/11/08 18:49:12;;;;;;;15.75;5.30;;;;;;;;;;6305304;22;19995;-89
2022/11/08 18:51:38;;;;;;;19.63;5.15;;;;;;;;;;6304714;22;20011;-89
2022/11/08 18:54:04;;;;;;;21.52;5.90;;;;;;;;;;6276126;22;20042;-90
2022/11/08 18:56:30;;;;;;;18.17;5.25;;;;;;;;;;6303899;22;20008;-90
2022/11/08 18:58:56;;;;;;;17.52;5.28;;;;;;;;;;6277146;22;20003;-90
2022/11/08 19:01:22;;;;;;;15.93;4.95;;;;;;;;;;6303946;22;20010;-91
2022/11/08 19:03:49;;;;;;;19.48;5.10;;;;;;;;;;6305437;22;20026;-90
2022/11/08 19:06:15;;;;;;;20.13;5.57;;;;;;;;;;6277647;22;20000;-92
2022/11/08 19:08:41;;;;;;;17.45;4.68;;;;;;;;;;6278112;22;20061;-90
2022/11/08 19:11:10;;;;;;;18.23;4.10;;;12.50;99.90;;;;;;6304062;22;20007;-91
2022/11/08 19:13:38;;;;;;;17.63;4.53;;;12.50;99.90;;;;;;6304038;22;19999;-89
2022/11/08 19:16:11;;;;;;;15.50;3.60;;;12.50;99.90;;;;;;6278438;22;20351;-91
2022/11/08 19:18:38;;;;;;;18.83;4.35;;;;;;;;;;6276882;22;20021;-91
2022/11/08 19:21:07;;;;;;;16.55;3.47;;;10.30;99.90;;;;;;6276680;22;20006;-91
2022/11/08 19:23:33;;;;;;;14.70;3.50;;;12.50;99.90;;;;;;6304623;22;19996;-90
2022/11/08 19:26:05;;;;;;;19.20;3.72;;;12.50;99.90;;;;;;6276855;22;20010;-91
2022/11/08 19:28:33;;;;;;;14.77;3.45;;;12.50;99.90;;;;;;6249876;22;20393;-90
2022/11/08 19:31:00;;;;;;;23.63;3.63;;;;;;;;;;6303838;22;19999;-89
2022/11/08 19:33:27;;;;;;;19.55;3.88;;;12.60;99.90;;;;;;6304720;22;19999;-91
2022/11/08 19:35:54;;;;;;;23.80;4.37;;;12.60;99.90;;;;;;6276026;22;20000;-89
2022/11/08 19:38:20;;;;;;;22.92;4.80;;;12.60;99.90;;;;;;6302978;22;20053;-92
2022/11/08 19:40:47;;;;;;;20.23;3.92;;;12.60;99.90;;;;;;6274042;22;20003;-88
2022/11/08 19:43:15;;;;;;;24.20;4.22;;;12.60;99.90;;;;;;6275229;22;20462;-88
2022/11/08 19:45:42;;;;;;;19.77;4.68;;;12.70;99.90;;;;;;6303396;22;20021;-88
2022/11/08 19:48:10;;;;;;;19.63;4.32;;;;;;;;;;6303242;22;20062;-90
2022/11/08 19:50:43;;;;;;;18.13;3.90;;;;;;;;;;6278848;22;20010;-93
2022/11/08 19:53:09;;;;;;;25.45;3.92;;;;;;;;;;6306191;22;20007;-91
2022/11/08 19:55:35;;;;;;;19.35;4.45;;;;;;;;;;6277204;22;20494;-91
2022/11/08 19:58:02;;;;;;;19.63;3.92;;;;;;;;;;6304859;22;20402;-91
2022/11/08 20:00:28;;;;;;;23.83;4.13;;;;;;;;;;6276643;22;20336;-92
2022/11/08 20:02:54;;;;;;;18.27;4.40;;;;;;;;;;6280825;22;20067;-93
2022/11/08 20:05:20;;;;;;;22.63;5.45;;;;;;;;;;6304255;22;19995;-91
2022/11/08 20:07:47;;;;;;;21.02;4.72;;;;;;;;;;6304393;22;20332;-88
2022/11/08 20:10:13;;;;;;;24.85;4.40;;;;;;;;;;6304738;22;20432;-91
2022/11/08 20:12:39;;;;;;;18.10;3.63;;;;;;;;;;6276398;22;20068;-89
2022/11/08 20:15:06;;;;;;;20.52;3.90;;;13.30;99.90;;;;;;6276282;22;20350;-90
2022/11/08 20:17:33;;;;;;;15.25;3.80;;;13.50;99.90;;;;;;6251446;22;20008;-94
2022/11/08 20:19:59;;;;;;;17.13;3.67;;;;;;;;;;6304830;22;20003;-93
2022/11/08 20:22:25;;;;;;;20.73;3.65;;;;;;;;;;6305527;22;19999;-94
2022/11/08 20:24:51;;;;;;;20.70;4.93;;;;;;;;;;6277833;22;20457;-89
2022/11/08 20:27:17;;;;;;;23.27;4.28;;;;;;;;;;6278700;22;20010;-90
2022/11/08 20:29:43;;;;;;;20.33;3.70;;;;;;;;;;6303605;22;19999;-91
2022/11/08 20:32:10;;;;;;;17.75;4.00;;;;;;;;;;6303440;22;20014;-91
2022/11/08 20:34:36;;;;;;;22.98;4.28;;;;;;;;;;6303403;22;20045;-90
2022/11/08 20:37:02;;;;;;;23.35;4.20;;;;;;;;;;6304477;22;20083;-91
2022/11/08 20:39:29;;;;;;;21.83;4.63;;;;;;;;;;6304956;22;19999;-94
2022/11/08 20:41:55;;;;;;;15.07;3.78;;;;;;;;;;6305443;22;20009;-93
2022/11/08 20:44:22;;;;;;;22.98;4.85;;;;;;;;;;6305215;22;20204;-92
2022/11/08 20:46:49;;;;;;;21.27;4.07;;;;;;;;;;6305242;22;20014;-91
2022/11/08 20:49:15;;;;;;;21.17;3.47;;;;;;;;;;6307052;22;20079;-94
2022/11/08 20:51:41;;;;;;;23.02;3.80;;;;;;;;;;6307914;22;20080;-93
2022/11/08 20:54:09;;;;;;;13.07;3.20;;;13.50;99.90;;;;;;6306547;22;20045;-93